Charter Quote
Worldwide +44-20-3874-8091 Call
Select Language Lang
SAFETY RELIABILITY EXPERIENCE

Jacarepagua (SBJR) - Jet Charter Services

AIRPORT INFORMATION
ICAOSBJR
LOCATIONRio De Janeiro, Brazil
FACILITY TYPEAIRPORT
Runway Length (ft) Width (ft) Surface Type Elevation (ft)
02/20 2956 42 CONC 10.00000

At Paramount Business Jets you can hire chartered private jets to and from Jacarepagua with as little as 4 hours of notice. All flights booked via Paramount Business Jets are operated by certified direct air carriers that meet and exceed the FAA part 135 and 121 protocol or a foreign equivalent safety authority. Furthermore, Paramount Business Jets subscribes to ARGUS for their third party safety checks of operators, aircraft, and crews prior each and every flight to and from Jacarepagua and worldwide.

  • Quote a trip using Jacarepagua or call us 24/7 - 365 days a year at +44-20-3874-8091.
Questions? Call +44-20-3874-8091

METAR Weather Data at Jacarepagua, SBJR

STATIONSBJR
OBSERVEDTue Feb 19, 10:00 UTC
NOWTue Feb 19, 10:29 UTC
AGE29 min ago
WINDN at 3 mph
VISIBILITY16 miles
CLOUDSscattered clouds
TEMP81°F (27°C)
DEWPT77°F (25°C)
HUMIDITY89%
HEAT INDEX88°F (31°C)
BAROMETER1010 hPa (29.83 in Hg)
METARSBJR 191000Z 01003KT 9999 FEW020 SCT090 27/25 Q1010

Call us on +44-20-3874-8091 (24 Hours) to Hire a Private Jet or Get a Quick Quote.

Find Airports Near any Location

Processing
...